createdAt,value
2023-05-21T00:01:45.736Z,99143.50
2023-05-21T00:06:47.548Z,99135.50
2023-05-21T00:11:49.324Z,99143.50
2023-05-21T00:16:51.096Z,99138.94
2023-05-21T00:21:53.454Z,99141.06
2023-05-21T00:26:56.325Z,99146.59
2023-05-21T00:31:58.381Z,99141.06
2023-05-21T00:37:02.765Z,99133.22
2023-05-21T00:42:05.042Z,99133.38
2023-05-21T00:47:08.193Z,99136.63
2023-05-21T00:52:10.134Z,99147.03
2023-05-21T00:57:12.133Z,99141.47
2023-05-21T01:02:18.223Z,99145.06
2023-05-21T01:07:20.263Z,99138.00
2023-05-21T01:12:23.718Z,99139.66
2023-05-21T01:17:28.564Z,99135.22
2023-05-21T01:22:32.673Z,99134.56
2023-05-21T01:27:34.504Z,99136.66
2023-05-21T01:33:13.150Z,99124.09
2023-05-21T01:38:31.238Z,99118.03
2023-05-21T01:43:37.088Z,99122.84
2023-05-21T01:48:39.171Z,99115.19
2023-05-21T01:53:41.599Z,99120.06
2023-05-21T01:58:44.077Z,99111.22
2023-05-21T02:03:46.044Z,99098.94
2023-05-21T02:08:49.475Z,99098.59
2023-05-21T02:13:51.254Z,99113.72
2023-05-21T02:18:57.372Z,99113.84
2023-05-21T02:23:59.365Z,99121.16
2023-05-21T02:29:01.550Z,99117.22
2023-05-21T02:34:03.436Z,99118.97
2023-05-21T02:39:05.209Z,99120.22
2023-05-21T02:44:07.241Z,99100.88
2023-05-21T02:49:09.058Z,99092.88
2023-05-21T02:54:10.930Z,99084.34
2023-05-21T02:59:12.728Z,99085.78
2023-05-21T03:04:14.655Z,99080.09
2023-05-21T03:09:16.833Z,99082.53
2023-05-21T03:14:18.663Z,99083.03
2023-05-21T03:19:21.472Z,99079.31
2023-05-21T03:24:23.409Z,99081.03
2023-05-21T03:29:25.376Z,99092.31
2023-05-21T03:34:27.289Z,99097.34
2023-05-21T03:39:29.097Z,99092.69
2023-05-21T03:44:32.651Z,99097.91
2023-05-21T03:49:51.032Z,99100.03
2023-05-21T03:54:52.920Z,99110.69
2023-05-21T03:59:54.890Z,99104.03
2023-05-21T04:04:56.775Z,99109.06
2023-05-21T04:09:59.988Z,99111.66
2023-05-21T04:15:02.705Z,99106.25
2023-05-21T04:20:05.098Z,99106.03
2023-05-21T04:25:08.099Z,99102.16
2023-05-21T04:30:12.812Z,99102.63
2023-05-21T04:35:16.067Z,99114.78
2023-05-21T04:40:24.291Z,99113.66
2023-05-21T04:45:26.045Z,99101.31
2023-05-21T04:50:30.896Z,99117.72
2023-05-21T04:55:33.117Z,99117.94
2023-05-21T05:00:37.775Z,99115.66
2023-05-21T05:05:40.859Z,99117.16
2023-05-21T05:10:42.754Z,99118.41
2023-05-21T05:15:44.666Z,99117.66
2023-05-21T05:20:47.772Z,99114.75
2023-05-21T05:25:49.582Z,99124.09
2023-05-21T05:30:51.409Z,99114.09
2023-05-21T05:36:01.128Z,99121.34
2023-05-21T05:41:03.326Z,99116.44
2023-05-21T05:46:05.301Z,99116.72
2023-05-21T05:51:07.334Z,99109.47
2023-05-21T05:56:09.121Z,99104.50
2023-05-21T06:01:11.855Z,99112.84
2023-05-21T06:06:15.393Z,99111.50
2023-05-21T06:11:20.941Z,99109.38
2023-05-21T06:16:24.945Z,99108.03
2023-05-21T06:21:28.563Z,99120.63
2023-05-21T06:26:31.109Z,99117.47
2023-05-21T06:31:34.272Z,99111.16
2023-05-21T06:36:36.619Z,99102.44
2023-05-21T06:41:38.452Z,99112.25
2023-05-21T06:46:57.898Z,99113.22
2023-05-21T06:51:59.906Z,99100.28
2023-05-21T06:57:03.799Z,99110.97
2023-05-21T07:37:55.525Z,99101.59
2023-05-21T07:57:10.443Z,99097.44
2023-05-21T08:02:30.025Z,99093.69
2023-05-21T08:07:32.598Z,99102.88
2023-05-21T08:12:34.853Z,99112.13
2023-05-21T08:17:36.984Z,99107.94
2023-05-21T08:22:38.833Z,99097.72
2023-05-21T08:27:41.011Z,99100.91
2023-05-21T08:32:44.048Z,99105.34
2023-05-21T08:37:46.917Z,99097.34
2023-05-21T08:43:01.157Z,99093.25
2023-05-21T08:48:19.019Z,99093.41
2023-05-21T08:53:28.696Z,99083.09
2023-05-21T08:58:33.825Z,99086.41
2023-05-21T09:03:39.792Z,99078.47
2023-05-21T09:08:46.036Z,99082.38
2023-05-21T09:13:58.331Z,99076.78
2023-05-21T09:19:08.206Z,99082.03
2023-05-21T09:24:11.155Z,99085.91
2023-05-21T09:29:13.697Z,99085.09
2023-05-21T09:34:15.957Z,99082.38
2023-05-21T09:39:30.081Z,99080.59
2023-05-21T09:44:35.859Z,99077.72
2023-05-21T09:49:38.391Z,99085.88
2023-05-21T09:54:40.708Z,99078.38
2023-05-21T09:59:42.620Z,99078.97
2023-05-21T10:04:47.897Z,99084.03
2023-05-21T10:09:50.664Z,99077.41
2023-05-21T10:15:00.178Z,99075.19
2023-05-21T10:20:02.838Z,99066.53
2023-05-21T10:25:08.095Z,99065.00
2023-05-21T10:30:10.234Z,99057.50
2023-05-21T10:35:14.534Z,99056.66
2023-05-21T10:40:16.466Z,99055.31
2023-05-21T10:45:57.090Z,99044.50
2023-05-21T10:51:10.618Z,99040.19
2023-05-21T10:56:25.350Z,99042.19
2023-05-21T11:01:36.509Z,99041.94
2023-05-21T11:06:38.354Z,99045.38
2023-05-21T11:11:44.193Z,99035.56
2023-05-21T11:16:46.885Z,99038.56
2023-05-21T11:21:51.646Z,99035.91
2023-05-21T11:26:58.549Z,99034.09
2023-05-21T11:32:05.429Z,99033.19
2023-05-21T11:37:26.917Z,99032.97
2023-05-21T11:42:38.791Z,99034.66
2023-05-21T11:47:40.603Z,99029.31
2023-05-21T11:52:43.035Z,99021.59
2023-05-21T11:57:44.961Z,99023.00
2023-05-21T12:02:50.719Z,99023.13
2023-05-21T12:07:54.592Z,99007.94
2023-05-21T12:12:57.501Z,99020.06
2023-05-21T12:17:59.570Z,99007.97
2023-05-21T12:23:01.339Z,99006.28
2023-05-21T12:28:06.283Z,99007.28
2023-05-21T12:33:08.372Z,99005.53
2023-05-21T12:38:13.164Z,98992.38
2023-05-21T12:43:14.995Z,98992.03
2023-05-21T12:48:16.809Z,98986.00
2023-05-21T12:53:18.544Z,98980.31
2023-05-21T12:58:22.282Z,98982.41
2023-05-21T13:03:24.049Z,98977.81
2023-05-21T13:08:25.805Z,98962.66
2023-05-21T13:13:27.597Z,98969.41
2023-05-21T13:18:29.376Z,98964.13
2023-05-21T13:23:31.115Z,98967.56
2023-05-21T13:28:32.904Z,98965.59
2023-05-21T13:33:34.760Z,98947.28
2023-05-21T13:38:37.870Z,98949.56
2023-05-21T13:43:42.984Z,98940.41
2023-05-21T13:48:47.847Z,98937.47
2023-05-21T13:53:49.648Z,98930.84
2023-05-21T13:58:51.432Z,98931.50
2023-05-21T14:03:53.235Z,98927.41
2023-05-21T14:08:54.998Z,98921.88
2023-05-21T14:13:57.085Z,98924.28
2023-05-21T14:18:59.404Z,98925.72
2023-05-21T14:24:01.238Z,98921.41
2023-05-21T14:29:03.086Z,98917.16
2023-05-21T14:34:06.932Z,98913.47
2023-05-21T14:39:08.747Z,98902.00
2023-05-21T14:44:10.478Z,98905.78
2023-05-21T14:49:15.518Z,98895.72
2023-05-21T14:54:17.262Z,98907.56
2023-05-21T14:59:19.046Z,98894.75
2023-05-21T15:04:20.858Z,98894.59
2023-05-21T15:09:22.594Z,98894.72
2023-05-21T15:14:24.326Z,98883.59
2023-05-21T15:19:26.178Z,98892.88
2023-05-21T15:24:28.073Z,98889.81
2023-05-21T15:29:29.829Z,98883.31
2023-05-21T15:34:32.628Z,98878.88
2023-05-21T15:39:34.562Z,98880.97
2023-05-21T15:44:36.317Z,98881.75
2023-05-21T15:49:38.142Z,98889.25
2023-05-21T15:54:39.885Z,98888.22
2023-05-21T15:59:47.837Z,98879.34
2023-05-21T16:04:51.765Z,98883.81
2023-05-21T16:09:53.752Z,98875.75
2023-05-21T16:14:55.558Z,98880.72
2023-05-21T16:19:57.641Z,98887.56
2023-05-21T16:24:59.386Z,98895.03
2023-05-21T16:30:01.281Z,98885.25
2023-05-21T16:35:06.816Z,98886.72
2023-05-21T16:40:09.262Z,98888.69
2023-05-21T16:45:20.384Z,98898.38
2023-05-21T16:50:22.182Z,98898.97
2023-05-21T16:55:23.919Z,98898.81
2023-05-21T17:00:25.657Z,98895.97
2023-05-21T17:05:27.488Z,98890.41
2023-05-21T17:10:29.418Z,98899.34
2023-05-21T17:15:31.727Z,98891.84
2023-05-21T17:20:33.566Z,98887.84
2023-05-21T17:25:35.893Z,98880.91
2023-05-21T17:30:38.603Z,98880.25
2023-05-21T17:35:40.481Z,98887.28
2023-05-21T17:40:42.223Z,98886.25
2023-05-21T17:45:44.009Z,98888.88
2023-05-21T17:50:46.950Z,98886.72
2023-05-21T17:55:48.755Z,98887.22
2023-05-21T18:00:50.720Z,98889.97
2023-05-21T18:05:52.503Z,98891.41
2023-05-21T18:10:54.262Z,98891.16
2023-05-21T18:15:59.159Z,98893.69
2023-05-21T18:21:01.000Z,98888.47
2023-05-21T18:26:03.064Z,98890.44
2023-05-21T18:31:04.902Z,98891.50
2023-05-21T18:36:06.885Z,98899.84
2023-05-21T18:41:12.313Z,98900.81
2023-05-21T18:46:16.329Z,98899.88
2023-05-21T18:51:18.148Z,98907.28
2023-05-21T18:56:22.335Z,98914.34
2023-05-21T19:01:24.330Z,98912.56
2023-05-21T19:06:27.813Z,98919.59
2023-05-21T19:11:34.273Z,98921.84
2023-05-21T19:16:36.170Z,98928.88
2023-05-21T19:21:38.135Z,98923.03
2023-05-21T19:26:40.244Z,98913.19
2023-05-21T19:31:42.800Z,98917.00
2023-05-21T19:36:52.769Z,98925.97
2023-05-21T19:41:55.433Z,98925.31
2023-05-21T19:46:57.260Z,98919.34
2023-05-21T19:51:59.514Z,98927.91
2023-05-21T19:57:01.290Z,98939.69
2023-05-21T20:02:03.324Z,98937.44
2023-05-21T20:07:05.301Z,98944.75
2023-05-21T20:12:07.778Z,98942.84
2023-05-21T20:17:10.198Z,98943.75
2023-05-21T20:22:15.619Z,98943.47
2023-05-21T20:27:19.530Z,98951.19
2023-05-21T20:32:21.516Z,98955.50
2023-05-21T20:37:26.191Z,98959.34
2023-05-21T20:42:34.089Z,98960.44
2023-05-21T20:47:36.274Z,98959.28
2023-05-21T20:52:38.164Z,98960.84
2023-05-21T20:57:40.039Z,98954.09
2023-05-21T21:02:41.875Z,98956.59
2023-05-21T21:07:45.758Z,98962.47
2023-05-21T21:12:48.960Z,98959.00
2023-05-21T21:17:50.995Z,98966.72
2023-05-21T21:22:52.880Z,98964.91
2023-05-21T21:27:54.797Z,98965.88
2023-05-21T21:32:56.684Z,98973.16
2023-05-21T21:37:58.670Z,98966.56
2023-05-21T21:43:00.436Z,98968.00
2023-05-21T21:48:02.265Z,98967.31
2023-05-21T21:53:05.905Z,98965.16
2023-05-21T21:58:07.683Z,98964.91
2023-05-21T22:03:10.000Z,98965.06
2023-05-21T22:08:13.016Z,98966.75
2023-05-21T22:13:14.861Z,98965.13
2023-05-21T22:18:25.326Z,98964.88
2023-05-21T22:23:33.918Z,98960.16
2023-05-21T22:28:35.835Z,98959.44
2023-05-21T22:33:37.750Z,98950.88
2023-05-21T22:38:39.544Z,98961.44
2023-05-21T22:43:42.341Z,98964.44
2023-05-21T22:48:46.123Z,98966.66
2023-05-21T22:53:48.042Z,98958.53
2023-05-21T22:58:49.817Z,98963.06
2023-05-21T23:03:51.668Z,98972.22
2023-05-21T23:08:53.433Z,98964.91
2023-05-21T23:13:55.205Z,98972.34
2023-05-21T23:18:57.048Z,98957.56
2023-05-21T23:23:58.846Z,98958.38
2023-05-21T23:29:01.769Z,98956.63
2023-05-21T23:34:04.764Z,98943.88
2023-05-21T23:39:06.534Z,98949.94
2023-05-21T23:44:08.278Z,98944.47
2023-05-21T23:49:10.068Z,98948.56
2023-05-21T23:54:11.934Z,98950.34
2023-05-21T23:59:15.108Z,98941.34
